createdAt,value
2023-08-15T00:03:08.551Z,68.30
2023-08-15T00:08:11.436Z,62.13
2023-08-15T00:13:14.201Z,56.13
2023-08-15T00:18:16.985Z,56.72
2023-08-15T00:23:21.474Z,58.17
2023-08-15T00:28:24.244Z,59.40
2023-08-15T00:33:27.094Z,67.44
2023-08-15T00:38:29.862Z,61.75
2023-08-15T00:43:32.664Z,56.21
2023-08-15T00:48:37.243Z,57.18
2023-08-15T00:53:40.755Z,59.26
2023-08-15T00:58:43.611Z,60.60
2023-08-15T01:03:48.049Z,67.52
2023-08-15T01:08:50.973Z,61.55
2023-08-15T01:14:06.206Z,56.23
2023-08-15T01:19:14.574Z,56.00
2023-08-15T01:24:17.869Z,58.25
2023-08-15T01:29:20.630Z,65.92
2023-08-15T01:34:34.096Z,61.14
2023-08-15T01:39:39.624Z,55.78
2023-08-15T01:44:42.375Z,57.24
2023-08-15T01:49:45.214Z,59.05
2023-08-15T01:54:48.343Z,66.18
2023-08-15T01:59:51.132Z,60.80
2023-08-15T02:04:53.913Z,55.80
2023-08-15T02:09:56.684Z,57.37
2023-08-15T02:14:59.455Z,59.49
2023-08-15T02:20:02.441Z,66.58
2023-08-15T02:25:05.942Z,61.66
2023-08-15T02:30:09.654Z,55.98
2023-08-15T02:35:14.396Z,56.69
2023-08-15T02:40:17.321Z,58.79
2023-08-15T02:45:20.127Z,66.44
2023-08-15T02:50:23.213Z,61.06
2023-08-15T02:55:26.150Z,55.88
2023-08-15T03:00:28.883Z,57.01
2023-08-15T03:05:31.620Z,58.80
2023-08-15T03:10:36.520Z,66.86
2023-08-15T03:15:39.822Z,62.06
2023-08-15T03:20:42.684Z,56.64
2023-08-15T03:25:45.411Z,57.85
2023-08-15T03:30:48.310Z,59.98
2023-08-15T03:35:52.656Z,66.79
2023-08-15T03:41:06.544Z,61.10
2023-08-15T03:46:09.458Z,56.09
2023-08-15T03:51:15.605Z,58.05
2023-08-15T03:56:25.939Z,59.19
2023-08-15T04:01:28.849Z,66.80
2023-08-15T04:06:31.667Z,61.46
2023-08-15T04:11:34.424Z,56.49
2023-08-15T04:16:37.388Z,58.43
2023-08-15T04:21:40.261Z,59.44
2023-08-15T04:26:43.010Z,66.57
2023-08-15T04:31:45.887Z,61.06
2023-08-15T04:36:49.978Z,55.87
2023-08-15T04:41:52.851Z,57.23
2023-08-15T04:46:55.999Z,59.12
2023-08-15T04:51:58.778Z,66.74
2023-08-15T04:57:01.565Z,61.23
2023-08-15T05:02:04.619Z,56.10
2023-08-15T05:07:07.693Z,57.37
2023-08-15T05:12:10.436Z,59.42
2023-08-15T05:17:13.368Z,65.33
2023-08-15T05:22:16.506Z,59.65
2023-08-15T05:27:19.800Z,55.48
2023-08-15T05:32:22.973Z,57.19
2023-08-15T05:37:25.952Z,59.10
2023-08-15T05:42:28.732Z,65.24
2023-08-15T05:47:31.688Z,58.55
2023-08-15T05:52:35.081Z,55.56
2023-08-15T05:57:37.853Z,56.76
2023-08-15T06:02:41.109Z,58.77
2023-08-15T06:07:44.785Z,64.81
2023-08-15T06:12:47.752Z,56.94
2023-08-15T06:17:50.549Z,56.51
2023-08-15T06:22:53.465Z,58.17
2023-08-15T06:27:56.216Z,59.57
2023-08-15T06:32:59.620Z,60.44
2023-08-15T06:38:02.454Z,64.07
2023-08-15T06:43:05.224Z,54.75
2023-08-15T06:48:08.069Z,53.70
2023-08-15T06:53:10.849Z,54.63
2023-08-15T06:58:13.596Z,55.21
2023-08-15T07:03:17.556Z,55.47
2023-08-15T07:08:20.369Z,55.44
2023-08-15T07:13:23.304Z,56.48
2023-08-15T07:18:26.231Z,55.27
2023-08-15T07:23:29.040Z,54.75
2023-08-15T07:28:31.749Z,54.65
2023-08-15T07:33:34.609Z,54.71
2023-08-15T07:38:37.411Z,53.30
2023-08-15T07:43:40.176Z,52.68
2023-08-15T07:48:44.142Z,51.29
2023-08-15T07:53:47.495Z,50.12
2023-08-15T07:58:50.261Z,47.97
2023-08-15T08:03:53.304Z,47.62
2023-08-15T08:08:56.143Z,47.06
2023-08-15T08:13:59.414Z,46.79
2023-08-15T08:19:02.844Z,46.38
2023-08-15T08:24:06.760Z,45.22
2023-08-15T08:29:12.642Z,45.18
2023-08-15T08:34:17.478Z,44.77
2023-08-15T08:39:31.613Z,43.76
2023-08-15T08:44:36.900Z,43.00
2023-08-15T08:49:44.934Z,42.33
2023-08-15T08:54:57.096Z,41.68
2023-08-15T09:00:10.901Z,41.15
2023-08-15T09:05:14.631Z,39.53
2023-08-15T09:10:17.800Z,39.46
2023-08-15T09:15:20.609Z,39.00
2023-08-15T09:20:23.438Z,37.75
2023-08-15T09:25:28.591Z,37.57
2023-08-15T09:30:32.207Z,37.42
2023-08-15T09:35:37.488Z,37.66
2023-08-15T09:40:45.161Z,36.82
2023-08-15T09:45:48.198Z,34.37
2023-08-15T09:50:51.915Z,33.86
2023-08-15T09:55:55.071Z,33.17
2023-08-15T10:00:59.654Z,31.06
2023-08-15T10:06:04.257Z,30.42
2023-08-15T10:11:10.452Z,30.60
2023-08-15T10:16:15.214Z,30.43
2023-08-15T10:21:19.417Z,28.87
2023-08-15T10:26:22.403Z,28.15
2023-08-15T10:31:41.211Z,27.76
2023-08-15T10:36:46.573Z,28.18
2023-08-15T10:41:50.350Z,27.47
2023-08-15T10:46:57.604Z,27.04
2023-08-15T10:52:01.439Z,27.39
2023-08-15T10:57:10.996Z,26.76
2023-08-15T11:02:16.342Z,26.76
2023-08-15T11:07:27.319Z,26.60
2023-08-15T11:12:33.165Z,26.85
2023-08-15T11:17:37.513Z,26.30
2023-08-15T11:22:41.751Z,25.98
2023-08-15T11:27:53.024Z,25.95
2023-08-15T11:33:01.809Z,25.92
2023-08-15T11:38:11.428Z,25.14
2023-08-15T11:43:15.516Z,25.48
2023-08-15T11:48:19.441Z,25.30
2023-08-15T11:53:27.291Z,25.56
2023-08-15T11:58:33.021Z,25.43
2023-08-15T12:03:40.273Z,25.70
2023-08-15T12:08:47.293Z,25.72
2023-08-15T12:13:50.624Z,25.33
2023-08-15T12:18:53.556Z,25.26
2023-08-15T12:23:57.453Z,25.58
2023-08-15T12:29:01.407Z,26.21
2023-08-15T12:34:06.419Z,26.40
2023-08-15T12:39:10.674Z,26.66
2023-08-15T12:44:13.990Z,26.92
2023-08-15T12:49:18.125Z,27.24
2023-08-15T12:54:21.716Z,27.63
2023-08-15T12:59:35.465Z,27.92
2023-08-15T13:04:38.998Z,28.15
2023-08-15T13:09:54.877Z,27.77
2023-08-15T13:14:57.958Z,28.03
2023-08-15T13:20:04.144Z,27.86
2023-08-15T13:25:08.940Z,28.18
2023-08-15T13:30:14.093Z,28.28
2023-08-15T13:35:21.444Z,27.67
2023-08-15T13:40:24.932Z,27.38
2023-08-15T13:45:29.324Z,27.12
2023-08-15T13:50:32.196Z,26.43
2023-08-15T13:55:35.617Z,25.81
2023-08-15T14:00:40.269Z,25.19
2023-08-15T14:05:43.210Z,25.42
2023-08-15T14:10:46.336Z,25.56
2023-08-15T14:15:50.976Z,25.25
2023-08-15T14:20:53.835Z,25.20
2023-08-15T14:25:58.290Z,25.29
2023-08-15T14:31:06.882Z,24.99
2023-08-15T14:36:10.965Z,24.48
2023-08-15T14:41:13.838Z,24.45
2023-08-15T14:46:18.873Z,24.36
2023-08-15T14:51:22.469Z,24.57
2023-08-15T14:56:26.710Z,24.40
2023-08-15T15:01:31.896Z,24.45
2023-08-15T15:06:36.722Z,24.25
2023-08-15T15:11:40.286Z,23.92
2023-08-15T15:16:44.816Z,23.56
2023-08-15T15:21:53.759Z,23.50
2023-08-15T15:26:59.647Z,23.37
2023-08-15T15:32:06.298Z,23.43
2023-08-15T15:37:13.322Z,23.52
2023-08-15T15:42:16.529Z,23.49
2023-08-15T15:47:20.770Z,23.84
2023-08-15T15:52:24.397Z,24.12
2023-08-15T15:57:28.188Z,24.24
2023-08-15T16:02:31.172Z,23.96
2023-08-15T16:07:34.071Z,24.15
2023-08-15T16:12:36.888Z,24.78
2023-08-15T16:17:39.896Z,25.21
2023-08-15T16:22:43.643Z,25.81
2023-08-15T16:27:46.433Z,26.41
2023-08-15T16:32:49.672Z,27.07
2023-08-15T16:37:52.833Z,27.66
2023-08-15T16:43:11.453Z,27.91
2023-08-15T16:48:15.389Z,28.43
2023-08-15T16:53:18.878Z,28.81
2023-08-15T16:58:24.783Z,29.08
2023-08-15T17:03:28.505Z,29.45
2023-08-15T17:08:32.430Z,29.79
2023-08-15T17:13:35.442Z,30.40
2023-08-15T17:18:38.472Z,31.12
2023-08-15T17:23:41.212Z,31.48
2023-08-15T17:28:44.492Z,31.86
2023-08-15T17:33:47.336Z,32.29
2023-08-15T17:38:50.084Z,32.84
2023-08-15T17:43:55.265Z,33.32
2023-08-15T17:48:58.081Z,33.80
2023-08-15T17:54:00.847Z,34.24
2023-08-15T17:59:04.243Z,34.73
2023-08-15T18:04:07.165Z,35.09
2023-08-15T18:09:10.767Z,35.48
2023-08-15T18:14:14.739Z,35.75
2023-08-15T18:19:21.267Z,36.23
2023-08-15T18:24:24.206Z,36.63
2023-08-15T18:29:28.054Z,37.03
2023-08-15T18:34:30.856Z,37.34
2023-08-15T18:39:33.796Z,37.71
2023-08-15T18:44:36.710Z,38.06
2023-08-15T18:49:39.748Z,38.54
2023-08-15T18:54:42.832Z,39.00
2023-08-15T18:59:45.713Z,39.48
2023-08-15T19:04:48.701Z,39.92
2023-08-15T19:09:51.574Z,40.16
2023-08-15T19:14:57.012Z,40.45
2023-08-15T19:20:00.047Z,40.72
2023-08-15T19:25:03.321Z,40.99
2023-08-15T19:30:07.331Z,40.86
2023-08-15T19:35:10.263Z,41.00
2023-08-15T19:40:13.347Z,40.94
2023-08-15T19:45:16.306Z,41.13
2023-08-15T19:50:19.191Z,41.15
2023-08-15T19:55:22.134Z,41.17
2023-08-15T20:00:25.542Z,41.41
2023-08-15T20:05:28.457Z,41.41
2023-08-15T20:10:35.669Z,41.60
2023-08-15T20:15:40.094Z,41.75
2023-08-15T20:20:43.143Z,41.84
2023-08-15T20:25:46.739Z,41.94
2023-08-15T20:30:49.960Z,42.11
2023-08-15T20:35:54.050Z,42.48
2023-08-15T20:40:59.204Z,42.68
2023-08-15T20:46:02.197Z,43.12
2023-08-15T20:51:05.771Z,43.53
2023-08-15T20:56:08.762Z,44.01
2023-08-15T21:01:14.597Z,44.27
2023-08-15T21:06:17.491Z,44.75
2023-08-15T21:11:21.037Z,45.02
2023-08-15T21:16:30.951Z,45.30
2023-08-15T21:21:44.879Z,45.42
2023-08-15T21:26:50.863Z,45.74
2023-08-15T21:31:54.659Z,46.01
2023-08-15T21:36:58.732Z,46.11
2023-08-15T21:42:15.385Z,46.20
2023-08-15T21:47:21.487Z,46.25
2023-08-15T21:52:25.049Z,46.31
2023-08-15T21:57:28.476Z,46.58
2023-08-15T22:02:32.020Z,46.69
2023-08-15T22:07:35.393Z,47.01
2023-08-15T22:12:38.222Z,47.15
2023-08-15T22:17:46.159Z,47.36
2023-08-15T22:22:50.644Z,47.56
2023-08-15T22:27:53.409Z,47.76
2023-08-15T22:32:56.170Z,47.86
2023-08-15T22:37:58.975Z,47.93
2023-08-15T22:43:01.960Z,48.03
2023-08-15T22:48:05.075Z,48.18
2023-08-15T22:53:07.900Z,48.35
2023-08-15T22:58:14.866Z,48.42
2023-08-15T23:03:17.689Z,48.53
2023-08-15T23:08:20.497Z,48.60
2023-08-15T23:13:23.472Z,48.82
2023-08-15T23:18:26.591Z,48.92
2023-08-15T23:23:29.668Z,49.08
2023-08-15T23:28:32.433Z,49.25
2023-08-15T23:33:35.252Z,49.33
2023-08-15T23:38:38.151Z,49.35
2023-08-15T23:43:41.340Z,49.55
2023-08-15T23:48:44.119Z,49.66
2023-08-15T23:53:48.761Z,49.68
2023-08-15T23:58:52.126Z,49.90
